< < Back
Terminal Aerodrome Forecast


Current Version              Previous Versions:   1  2  3  4  5  6  7  8  9  

Terminal Aerodrome Forecast

198
FTUS42 KTAE 280500
TAFTLH
TAF
KTLH 280530Z 2806/2906 01005KT P6SM SKC=

Latest METAR

049
SAUS80 KWBC 281100 RRA
MTRTLH
METAR KTLH 281053Z 34004KT 10SM CLR 02/M01 A3037 RMK AO2 SLP283 FIRST
AUGMENTED OBS T00221011 $


USA.gov is the U.S. government's official web portal to all federal, state and local government web resources and services.